Time;durP1;ratioP1;P1;durP2;ratioP2;P2;SDS_P1;SDS_P2;PMS_P1;PMS_P2;Temp;Humidity;BMP_temperature;BMP_pressure;BME280_temperature;BME280_humidity;BME280_pressure;Samples;Min_cycle;Max_cycle;Signal;HPM_P1;HPM_P2
2024/03/11 00:00:17;;;;;;;26.77;23.65;;;;;;;;;;5052333;28;20053;-57
2024/03/11 00:02:44;;;;;;;27.60;23.00;;;;;;;;;;5055895;28;20057;-57
2024/03/11 00:05:13;;;;;;;28.58;24.80;;;;;;;;;;5056223;28;20056;-57
2024/03/11 00:07:41;;;;;;;28.23;24.02;;;;;;;;;;5056222;28;20045;-57
2024/03/11 00:10:12;;;;;;;28.02;23.85;;;;;;;;;;5055953;28;20053;-56
2024/03/11 00:12:40;;;;;;;29.05;23.95;;;;;;;;;;5056083;28;20410;-57
2024/03/11 00:15:09;;;;;;;27.33;23.85;;;;;;;;;;5055979;28;20064;-56
2024/03/11 00:17:36;;;;;;;32.88;24.70;;;;;;;;;;5055736;28;20049;-57
2024/03/11 00:20:04;;;;;;;29.75;24.63;;;;;;;;;;5055857;28;20076;-57
2024/03/11 00:22:32;;;;;;;30.98;25.55;;;;;;;;;;5055428;28;20049;-57
2024/03/11 00:24:59;;;;;;;28.20;23.92;;;;;;;;;;5055364;28;20052;-57
2024/03/11 00:27:26;;;;;;;31.55;26.35;;;;;;;;;;5055584;28;20400;-57
2024/03/11 00:29:53;;;;;;;34.13;26.80;;;;;;;;;;5055541;28;20052;-57
2024/03/11 00:32:24;;;;;;;33.80;26.63;;;;;;;;;;5055519;28;20463;-57
2024/03/11 00:34:51;;;;;;;32.40;25.33;;;;;;;;;;5055402;28;20049;-57
2024/03/11 00:37:18;;;;;;;31.80;25.85;;;;;;;;;;5055759;28;20064;-57
2024/03/11 00:39:46;;;;;;;30.83;26.08;;;;;;;;;;5055543;28;20057;-57
2024/03/11 00:42:13;;;;;;;32.17;25.15;;;;;;;;;;5055291;28;20049;-57
2024/03/11 00:44:40;;;;;;;34.63;28.08;;;;;;;;;;5055288;28;20057;-57
2024/03/11 00:47:07;;;;;;;30.00;25.85;;;;;;;;;;5055398;28;20065;-57
2024/03/11 00:49:34;;;;;;;32.63;25.75;;;;;;;;;;5055742;28;20056;-57
2024/03/11 00:52:00;;;;;;;30.55;25.23;;;;;;;;;;5055484;28;20061;-57
2024/03/11 00:54:27;;;;;;;30.80;25.45;;;;;;;;;;5055357;28;20071;-57
2024/03/11 00:56:58;;;;;;;31.77;25.92;;;;;;;;;;5055598;28;20052;-57
2024/03/11 00:59:24;;;;;;;31.50;25.55;;;;;;;;;;5055680;28;20060;-57
2024/03/11 01:01:51;;;;;;;34.50;27.92;;;;;;;;;;5038722;28;20058;-56
2024/03/11 01:04:21;;;;;;;34.45;28.20;;;;;;;;;;5035277;28;20053;-57
2024/03/11 01:06:47;;;;;;;34.22;28.17;;;;;;;;;;5035170;28;20054;-57
2024/03/11 01:09:20;;;;;;;33.25;27.10;;;;;;;;;;5035058;28;20398;-57
2024/03/11 01:11:47;;;;;;;33.38;27.90;;;;;;;;;;5034693;28;20061;-57
2024/03/11 01:14:15;;;;;;;37.33;29.48;;;;;;;;;;5033937;28;20061;-56
2024/03/11 01:16:42;;;;;;;33.08;27.88;;;;;;;;;;5034977;28;20060;-57
2024/03/11 01:19:08;;;;;;;33.28;27.17;;;;;;;;;;5033569;28;20065;-57
2024/03/11 01:21:36;;;;;;;30.67;25.77;;;;;;;;;;5034096;28;20049;-57
2024/03/11 01:24:04;;;;;;;31.60;24.70;;;;;;;;;;5035184;28;20060;-57
2024/03/11 01:26:31;;;;;;;33.67;26.92;;;;;;;;;;5034808;28;20375;-57
2024/03/11 01:28:58;;;;;;;30.15;25.13;;;;;;;;;;5034424;28;20050;-57
2024/03/11 01:31:28;;;;;;;35.92;28.80;;;;;;;;;;5034632;28;20053;-57
2024/03/11 01:33:55;;;;;;;29.90;25.75;;;;;;;;;;5034307;28;20053;-57
2024/03/11 01:36:21;;;;;;;34.00;27.15;;;;;;;;;;5034811;28;20403;-57
2024/03/11 01:38:48;;;;;;;33.03;26.98;;;;;;;;;;5034309;28;20053;-57
2024/03/11 01:41:18;;;;;;;34.20;28.30;;;;;;;;;;5034586;28;20483;-57
2024/03/11 01:43:45;;;;;;;33.45;26.88;;;;;;;;;;5034545;28;20080;-57
2024/03/11 01:46:12;;;;;;;36.28;28.98;;;;;;;;;;5034338;28;20491;-56
2024/03/11 01:48:41;;;;;;;36.28;28.83;;;;;;;;;;5034247;28;20403;-57
2024/03/11 01:51:08;;;;;;;34.90;29.05;;;;;;;;;;5034049;28;20364;-57
2024/03/11 01:53:35;;;;;;;36.63;29.63;;;;;;;;;;5034009;28;20415;-57
2024/03/11 01:56:02;;;;;;;36.28;29.55;;;;;;;;;;5034143;28;20060;-56
2024/03/11 01:58:30;;;;;;;36.22;27.90;;;;;;;;;;5034221;28;20056;-57
2024/03/11 02:00:56;;;;;;;35.40;29.77;;;;;;;;;;5043206;28;20518;-57
2024/03/11 02:03:23;;;;;;;37.10;28.58;;;;;;;;;;5054025;28;20402;-57
2024/03/11 02:05:52;;;;;;;38.63;30.10;;;;;;;;;;5054127;28;20053;-56
2024/03/11 02:08:21;;;;;;;37.45;29.55;;;;;;;;;;5053745;28;20052;-57
2024/03/11 02:10:48;;;;;;;39.92;31.23;;;;;;;;;;5053348;28;20053;-57
2024/03/11 02:13:15;;;;;;;33.60;28.27;;;;;;;;;;5053481;28;20057;-57
2024/03/11 02:15:42;;;;;;;37.50;29.73;;;;;;;;;;5053893;28;20057;-57
2024/03/11 02:18:09;;;;;;;36.40;29.85;;;;;;;;;;5053768;28;20068;-57
2024/03/11 02:20:39;;;;;;;38.45;30.45;;;;;;;;;;5053588;28;20136;-56
2024/03/11 02:23:08;;;;;;;38.33;30.70;;;;;;;;;;5053426;28;20521;-57
2024/03/11 02:25:35;;;;;;;38.38;31.48;;;;;;;;;;5053271;28;20052;-57
2024/03/11 02:28:03;;;;;;;37.75;30.17;;;;;;;;;;5053356;28;20053;-56
2024/03/11 02:30:30;;;;;;;37.88;30.58;;;;;;;;;;5053594;28;20053;-57
2024/03/11 02:32:57;;;;;;;45.90;34.67;;;;;;;;;;5053245;28;20068;-56
2024/03/11 02:35:23;;;;;;;41.25;32.42;;;;;;;;;;5053235;28;20060;-57
2024/03/11 02:37:50;;;;;;;39.72;31.67;;;;;;;;;;5053482;28;20147;-57
2024/03/11 02:40:19;;;;;;;39.88;31.88;;;;;;;;;;5053197;28;20486;-57
2024/03/11 02:42:45;;;;;;;38.95;31.63;;;;;;;;;;5053342;28;20064;-57
2024/03/11 02:45:13;;;;;;;44.40;34.00;;;;;;;;;;5053325;28;20060;-57
2024/03/11 02:47:40;;;;;;;41.28;32.70;;;;;;;;;;5053203;28;20053;-57
2024/03/11 02:50:08;;;;;;;41.85;32.53;;;;;;;;;;5052770;28;20053;-57
2024/03/11 02:52:36;;;;;;;42.90;34.38;;;;;;;;;;5053027;28;20049;-56
2024/03/11 02:55:03;;;;;;;42.15;33.78;;;;;;;;;;5053023;28;20052;-57
2024/03/11 02:57:32;;;;;;;42.60;34.42;;;;;;;;;;5052739;28;20075;-57
2024/03/11 02:59:59;;;;;;;39.47;33.30;;;;;;;;;;5052609;28;20067;-56
2024/03/11 03:02:26;;;;;;;42.55;33.13;;;;;;;;;;5053076;28;20060;-56
2024/03/11 03:04:52;;;;;;;41.15;32.22;;;;;;;;;;5053203;28;20057;-56
2024/03/11 03:07:19;;;;;;;42.78;31.95;;;;;;;;;;5053057;28;20052;-56
2024/03/11 03:09:46;;;;;;;40.78;33.80;;;;;;;;;;5052378;28;20401;-57
2024/03/11 03:12:14;;;;;;;38.22;31.98;;;;;;;;;;5052409;28;20053;-57
2024/03/11 03:14:42;;;;;;;38.78;31.55;;;;;;;;;;5052648;28;20363;-56
2024/03/11 03:17:09;;;;;;;42.45;33.00;;;;;;;;;;5052274;28;20064;-56
2024/03/11 03:19:36;;;;;;;39.95;32.22;;;;;;;;;;5052697;28;20049;-56
2024/03/11 03:22:03;;;;;;;38.17;30.77;;;;;;;;;;5052597;28;20053;-57
2024/03/11 03:24:30;;;;;;;42.67;33.40;;;;;;;;;;5052412;28;20049;-57
2024/03/11 03:26:57;;;;;;;43.25;32.83;;;;;;;;;;5052767;28;20080;-56
2024/03/11 03:29:24;;;;;;;43.70;33.03;;;;;;;;;;5052247;28;20049;-57
2024/03/11 03:31:52;;;;;;;39.13;31.85;;;;;;;;;;5052484;28;20052;-56
2024/03/11 03:34:19;;;;;;;40.05;31.90;;;;;;;;;;5052450;28;20056;-57
2024/03/11 03:36:46;;;;;;;42.55;33.20;;;;;;;;;;5052147;28;20060;-57
2024/03/11 03:39:13;;;;;;;39.80;32.70;;;;;;;;;;5052126;28;20053;-57
2024/03/11 03:41:40;;;;;;;38.92;31.67;;;;;;;;;;5052536;28;20053;-57
2024/03/11 03:44:07;;;;;;;39.70;31.88;;;;;;;;;;5052444;28;20064;-57
2024/03/11 03:46:35;;;;;;;38.15;31.63;;;;;;;;;;5052492;28;20058;-57
2024/03/11 03:49:03;;;;;;;40.30;32.20;;;;;;;;;;5052339;28;20044;-56
2024/03/11 03:51:30;;;;;;;37.83;31.08;;;;;;;;;;5052469;28;20064;-57
2024/03/11 03:53:58;;;;;;;38.63;30.73;;;;;;;;;;5052557;28;20057;-57
2024/03/11 03:56:25;;;;;;;39.85;31.70;;;;;;;;;;5052446;28;20049;-57
2024/03/11 03:58:52;;;;;;;37.78;30.52;;;;;;;;;;5051995;28;20049;-57
2024/03/11 04:01:19;;;;;;;38.35;30.60;;;;;;;;;;5052261;28;20057;-57
2024/03/11 04:03:45;;;;;;;39.88;31.52;;;;;;;;;;5052073;28;20059;-57
2024/03/11 04:06:14;;;;;;;37.33;29.92;;;;;;;;;;5052333;28;20064;-57
2024/03/11 04:08:40;;;;;;;37.65;30.30;;;;;;;;;;5052236;28;20056;-57
2024/03/11 04:11:07;;;;;;;35.53;29.17;;;;;;;;;;5051940;28;20053;-57
2024/03/11 04:13:34;;;;;;;38.63;29.60;;;;;;;;;;5052446;28;20387;-57
2024/03/11 04:16:04;;;;;;;38.28;30.88;;;;;;;;;;5052137;28;20053;-57
2024/03/11 04:18:31;;;;;;;38.35;30.10;;;;;;;;;;5051891;28;20053;-57
2024/03/11 04:20:58;;;;;;;37.15;30.10;;;;;;;;;;5052238;28;20053;-57
2024/03/11 04:23:27;;;;;;;35.72;29.58;;;;;;;;;;5052283;28;20536;-57
2024/03/11 04:25:54;;;;;;;35.38;29.52;;;;;;;;;;5052141;28;20059;-57
2024/03/11 04:28:21;;;;;;;36.20;28.33;;;;;;;;;;5052121;28;20064;-57
2024/03/11 04:30:48;;;;;;;34.25;28.75;;;;;;;;;;5051913;28;20053;-56
2024/03/11 04:33:17;;;;;;;36.35;29.90;;;;;;;;;;5051723;28;20410;-57
2024/03/11 04:35:44;;;;;;;36.45;30.25;;;;;;;;;;5051837;28;20060;-57
2024/03/11 04:38:12;;;;;;;36.28;28.70;;;;;;;;;;5051997;28;20060;-57
2024/03/11 04:40:41;;;;;;;36.38;29.10;;;;;;;;;;5051884;28;20060;-56
2024/03/11 04:43:08;;;;;;;36.25;28.92;;;;;;;;;;5051848;28;20057;-57
2024/03/11 04:45:36;;;;;;;37.42;29.85;;;;;;;;;;5051838;28;20060;-56
2024/03/11 04:48:04;;;;;;;36.63;28.90;;;;;;;;;;5052483;28;20080;-57
2024/03/11 04:50:32;;;;;;;34.10;28.85;;;;;;;;;;5055299;28;20398;-56
2024/03/11 04:53:00;;;;;;;36.50;29.33;;;;;;;;;;5055236;28;20449;-56
2024/03/11 04:55:27;;;;;;;36.63;29.08;;;;;;;;;;5055114;28;20057;-57
2024/03/11 04:57:56;;;;;;;34.38;27.92;;;;;;;;;;5055140;28;20053;-57
2024/03/11 05:00:26;;;;;;;35.95;29.42;;;;;;;;;;5055152;28;20052;-57
2024/03/11 05:02:53;;;;;;;34.08;27.88;;;;;;;;;;5054820;28;20049;-57
2024/03/11 05:05:20;;;;;;;35.92;28.98;;;;;;;;;;5055327;28;20057;-57
2024/03/11 05:07:46;;;;;;;37.25;30.58;;;;;;;;;;5054730;28;20056;-57
2024/03/11 05:10:13;;;;;;;38.95;30.77;;;;;;;;;;5054885;28;20063;-55
2024/03/11 05:12:40;;;;;;;39.50;31.52;;;;;;;;;;5054814;28;20052;-57
2024/03/11 05:15:09;;;;;;;40.45;33.10;;;;;;;;;;5055202;28;20053;-57
2024/03/11 05:17:36;;;;;;;42.80;33.97;;;;;;;;;;5055055;28;20061;-56
2024/03/11 05:20:06;;;;;;;39.58;32.08;;;;;;;;;;5054636;28;20048;-56
2024/03/11 05:22:32;;;;;;;;;;;;;;;;;;5054793;28;20056;-56
2024/03/11 05:24:59;;;;;;;38.40;30.85;;;;;;;;;;5055145;28;20274;-56
2024/03/11 05:27:26;;;;;;;40.67;32.83;;;;;;;;;;5054787;28;20048;-57
2024/03/11 05:29:53;;;;;;;41.22;33.45;;;;;;;;;;5054193;28;20049;-56
2024/03/11 05:32:21;;;;;;;47.08;36.33;;;;;;;;;;5054922;28;20064;-57
2024/03/11 05:34:48;;;;;;;44.17;34.03;;;;;;;;;;5054514;28;20075;-57
2024/03/11 05:37:15;;;;;;;44.15;34.58;;;;;;;;;;5054310;28;20052;-57
2024/03/11 05:39:42;;;;;;;44.08;34.03;;;;;;;;;;5054611;28;20060;-57
2024/03/11 05:42:08;;;;;;;46.45;35.40;;;;;;;;;;5054454;28;20053;-57
2024/03/11 05:44:35;;;;;;;47.47;37.13;;;;;;;;;;5054679;28;20060;-57
2024/03/11 05:47:03;;;;;;;45.80;35.80;;;;;;;;;;5054347;28;20486;-57
2024/03/11 05:49:33;;;;;;;49.20;36.38;;;;;;;;;;5054412;28;20059;-56
2024/03/11 05:51:59;;;;;;;47.63;36.17;;;;;;;;;;5054470;28;20083;-57
2024/03/11 05:54:26;;;;;;;44.90;34.85;;;;;;;;;;5054287;28;20372;-57
2024/03/11 05:56:56;;;;;;;42.33;33.33;;;;;;;;;;5054442;28;20052;-57
2024/03/11 05:59:23;;;;;;;;;;;;;;;;;;5054278;28;20413;-57
2024/03/11 06:01:49;;;;;;;39.47;31.17;;;;;;;;;;5038321;28;19928;-57
2024/03/11 06:04:16;;;;;;;39.45;30.77;;;;;;;;;;5033723;28;20064;-57
2024/03/11 06:06:45;;;;;;;41.65;33.85;;;;;;;;;;5034000;28;20053;-57
2024/03/11 06:09:14;;;;;;;37.00;30.42;;;;;;;;;;5033841;28;20056;-57
2024/03/11 06:11:41;;;;;;;37.40;29.92;;;;;;;;;;5033162;28;20053;-57
2024/03/11 06:14:10;;;;;;;37.40;29.75;;;;;;;;;;5033217;28;20491;-56
2024/03/11 06:16:37;;;;;;;37.65;30.85;;;;;;;;;;5033780;28;20053;-57
2024/03/11 06:19:04;;;;;;;38.15;30.48;;;;;;;;;;5033101;28;20045;-56
2024/03/11 06:21:31;;;;;;;39.72;32.05;;;;;;;;;;5033094;28;20055;-56
2024/03/11 06:24:00;;;;;;;36.22;30.17;;;;;;;;;;5033081;28;20057;-55
2024/03/11 06:26:27;;;;;;;38.08;31.20;;;;;;;;;;5033463;28;20060;-56
2024/03/11 06:28:55;;;;;;;41.85;31.00;;;;;;;;;;5033478;28;20049;-57
2024/03/11 06:31:23;;;;;;;40.35;31.75;;;;;;;;;;5033130;28;20050;-57
2024/03/11 06:33:50;;;;;;;40.30;31.33;;;;;;;;;;5032828;28;20439;-57
2024/03/11 06:36:17;;;;;;;39.22;31.20;;;;;;;;;;5033102;28;20053;-57
2024/03/11 06:38:44;;;;;;;40.20;32.63;;;;;;;;;;5033310;28;20057;-57
2024/03/11 06:41:13;;;;;;;36.80;30.77;;;;;;;;;;5032929;28;20056;-57
2024/03/11 06:43:40;;;;;;;36.22;29.02;;;;;;;;;;5032512;28;20049;-57
2024/03/11 06:46:07;;;;;;;35.33;30.52;;;;;;;;;;5032577;28;20058;-57
2024/03/11 06:48:33;;;;;;;35.20;29.55;;;;;;;;;;5032303;28;20053;-57
2024/03/11 06:51:00;;;;;;;35.08;28.52;;;;;;;;;;5032825;28;20060;-57
2024/03/11 06:53:28;;;;;;;35.45;28.70;;;;;;;;;;5032465;28;20060;-58
2024/03/11 06:55:54;;;;;;;31.85;26.92;;;;;;;;;;5032812;28;20418;-57
2024/03/11 06:58:23;;;;;;;32.28;26.30;;;;;;;;;;5032836;28;20062;-57
2024/03/11 07:00:51;;;;;;;32.53;27.13;;;;;;;;;;5032311;28;20050;-57
2024/03/11 07:03:18;;;;;;;32.40;27.35;;;;;;;;;;5032735;28;20045;-57
2024/03/11 07:05:44;;;;;;;33.30;27.05;;;;;;;;;;5032733;28;20501;-57
2024/03/11 07:08:11;;;;;;;34.03;27.48;;;;;;;;;;5032375;28;20060;-57
2024/03/11 07:10:38;;;;;;;34.00;28.08;;;;;;;;;;5031384;28;20518;-57
2024/03/11 07:13:07;;;;;;;37.40;31.17;;;;;;;;;;5032200;28;20053;-57
2024/03/11 07:15:35;;;;;;;36.03;27.95;;;;;;;;;;5032409;28;20060;-56
2024/03/11 07:18:02;;;;;;;33.38;26.23;;;;;;;;;;5032668;28;20065;-57
2024/03/11 07:20:29;;;;;;;34.20;27.88;;;;;;;;;;5032339;28;20395;-57
2024/03/11 07:22:56;;;;;;;35.50;30.02;;;;;;;;;;5032372;28;20064;-57
2024/03/11 07:25:23;;;;;;;32.95;27.15;;;;;;;;;;5032571;28;20053;-57
2024/03/11 07:27:50;;;;;;;32.58;26.70;;;;;;;;;;5032362;28;20053;-57
2024/03/11 07:30:22;;;;;;;31.25;26.08;;;;;;;;;;5032171;28;20053;-57
2024/03/11 07:33:02;;;;;;;28.77;23.90;;;;;;;;;;5032117;28;20447;-57
2024/03/11 07:35:31;;;;;;;29.85;23.85;;;;;;;;;;5032332;28;20057;-57
2024/03/11 07:37:59;;;;;;;27.88;24.55;;;;;;;;;;5032460;28;20049;-57
2024/03/11 07:40:26;;;;;;;25.10;21.50;;;;;;;;;;5032097;28;20046;-57
2024/03/11 07:42:53;;;;;;;26.45;21.15;;;;;;;;;;5032226;28;20060;-57
2024/03/11 07:45:20;;;;;;;26.05;21.85;;;;;;;;;;5032316;28;20065;-57
2024/03/11 07:47:47;;;;;;;23.35;18.92;;;;;;;;;;5032403;28;20053;-57
2024/03/11 07:50:15;;;;;;;22.58;18.38;;;;;;;;;;5032022;28;20057;-57
2024/03/11 07:52:42;;;;;;;20.63;17.08;;;;;;;;;;5032299;28;20053;-57
2024/03/11 07:55:09;;;;;;;20.10;17.33;;;;;;;;;;5032358;28;20057;-57
2024/03/11 07:57:37;;;;;;;20.63;17.63;;;;;;;;;;5032015;28;20053;-56
2024/03/11 08:00:05;;;;;;;19.80;16.75;;;;;;;;;;5031947;28;20057;-56
2024/03/11 08:02:33;;;;;;;20.55;17.25;;;;;;;;;;5032295;28;20435;-56
2024/03/11 08:05:01;;;;;;;19.98;16.95;;;;;;;;;;5032159;28;20394;-57
2024/03/11 08:07:32;;;;;;;22.48;17.80;;;;;;;;;;5032396;28;20057;-56
2024/03/11 08:10:00;;;;;;;21.60;17.83;;;;;;;;;;5031862;28;20064;-57
2024/03/11 08:12:27;;;;;;;21.95;17.80;;;;;;;;;;5031979;28;20053;-57
2024/03/11 08:14:54;;;;;;;18.88;16.63;;;;;;;;;;5031836;28;20049;-57
2024/03/11 08:17:21;;;;;;;20.17;16.65;;;;;;;;;;5031986;28;20407;-56
2024/03/11 08:19:49;;;;;;;20.10;16.77;;;;;;;;;;5031849;28;20060;-57
2024/03/11 08:22:16;;;;;;;20.23;16.95;;;;;;;;;;5032555;28;20056;-57
2024/03/11 08:24:44;;;;;;;19.90;16.88;;;;;;;;;;5035661;28;20515;-57
2024/03/11 08:27:11;;;;;;;19.23;16.52;;;;;;;;;;5035812;28;20507;-57
2024/03/11 08:29:38;;;;;;;19.75;16.48;;;;;;;;;;5035287;28;20053;-56
2024/03/11 08:32:06;;;;;;;19.10;16.88;;;;;;;;;;5035196;28;20060;-57
2024/03/11 08:34:35;;;;;;;21.63;17.20;;;;;;;;;;5035670;28;20064;-57
2024/03/11 08:37:03;;;;;;;18.77;16.38;;;;;;;;;;5035893;28;20053;-56
2024/03/11 08:39:30;;;;;;;18.42;16.00;;;;;;;;;;5035588;28;20056;-57
2024/03/11 08:41:58;;;;;;;20.67;17.02;;;;;;;;;;5035363;28;20376;-57
2024/03/11 08:44:25;;;;;;;19.17;16.55;;;;;;;;;;5035484;28;20056;-57
2024/03/11 08:46:52;;;;;;;20.35;17.00;;;;;;;;;;5035696;28;20068;-57
2024/03/11 08:49:21;;;;;;;21.67;17.42;;;;;;;;;;5034892;28;20411;-57
2024/03/11 08:51:48;;;;;;;21.48;18.00;;;;;;;;;;5035306;28;20406;-57
2024/03/11 08:54:15;;;;;;;23.63;19.65;;;;;;;;;;5035075;28;20057;-57
2024/03/11 08:56:42;;;;;;;22.83;19.20;;;;;;;;;;5035174;28;20073;-58
2024/03/11 08:59:12;;;;;;;22.98;19.40;;;;;;;;;;5035022;28;20053;-56
2024/03/11 09:01:40;;;;;;;24.38;20.67;;;;;;;;;;5035012;28;20049;-57
2024/03/11 09:04:10;;;;;;;23.00;18.65;;;;;;;;;;5034886;28;20065;-57
2024/03/11 09:06:38;;;;;;;;;;;;;;;;;;5035672;28;20060;-57
2024/03/11 09:09:05;;;;;;;21.77;18.45;;;;;;;;;;5035195;28;19921;-56
2024/03/11 09:11:32;;;;;;;22.95;19.00;;;;;;;;;;5034256;28;20054;-56
2024/03/11 09:13:59;;;;;;;23.58;20.05;;;;;;;;;;5034939;28;20053;-56
2024/03/11 09:16:28;;;;;;;22.98;19.85;;;;;;;;;;5034876;28;20053;-57
2024/03/11 09:18:54;;;;;;;22.45;18.40;;;;;;;;;;5034760;28;20060;-57
2024/03/11 09:21:22;;;;;;;24.60;18.67;;;;;;;;;;5034202;28;20049;-57
2024/03/11 09:23:49;;;;;;;23.40;19.25;;;;;;;;;;5034444;28;20491;-57
2024/03/11 09:26:17;;;;;;;24.48;19.63;;;;;;;;;;5034806;28;20065;-57
2024/03/11 09:28:46;;;;;;;23.95;19.60;;;;;;;;;;5034802;28;20501;-57
2024/03/11 09:31:13;;;;;;;25.52;21.20;;;;;;;;;;5034824;28;20064;-56
2024/03/11 09:33:42;;;;;;;26.05;20.13;;;;;;;;;;5033680;28;20049;-57
2024/03/11 09:36:09;;;;;;;26.10;20.60;;;;;;;;;;5034430;28;20069;-56
2024/03/11 09:38:36;;;;;;;24.88;19.77;;;;;;;;;;5034604;28;20053;-57
2024/03/11 09:41:05;;;;;;;24.35;19.48;;;;;;;;;;5034143;28;20053;-58
2024/03/11 09:43:33;;;;;;;28.08;23.08;;;;;;;;;;5034130;28;20049;-57
2024/03/11 09:45:59;;;;;;;27.60;22.13;;;;;;;;;;5034073;28;20053;-56
2024/03/11 09:48:26;;;;;;;26.77;21.75;;;;;;;;;;5034136;28;20064;-56
2024/03/11 09:50:56;;;;;;;26.52;21.58;;;;;;;;;;5034215;28;20053;-57
2024/03/11 09:53:23;;;;;;;27.58;22.55;;;;;;;;;;5033793;28;20049;-55
2024/03/11 09:55:50;;;;;;;25.65;21.55;;;;;;;;;;5034168;28;20064;-57
2024/03/11 09:58:18;;;;;;;24.73;20.10;;;;;;;;;;5033988;28;20403;-57
2024/03/11 10:00:49;;;;;;;27.80;22.70;;;;;;;;;;5033881;28;20402;-57
2024/03/11 10:03:16;;;;;;;27.02;21.58;;;;;;;;;;5033841;28;20061;-56
2024/03/11 10:05:44;;;;;;;25.42;20.65;;;;;;;;;;5033737;28;20058;-56
2024/03/11 10:08:18;;;;;;;25.25;20.80;;;;;;;;;;5033749;28;20050;-56
2024/03/11 10:11:08;;;;;;;25.35;21.08;;;;;;;;;;5033216;28;20434;-56
2024/03/11 10:13:36;;;;;;;25.65;20.92;;;;;;;;;;5033418;28;20518;-57
2024/03/11 10:16:14;;;;;;;28.00;21.75;;;;;;;;;;5033733;28;20068;-56
2024/03/11 10:18:48;;;;;;;26.80;21.23;;;;;;;;;;5034114;28;20076;-57
2024/03/11 10:21:16;;;;;;;24.38;19.65;;;;;;;;;;5034153;28;20061;-57
2024/03/11 10:23:45;;;;;;;21.30;17.35;;;;;;;;;;5033253;28;20072;-57
2024/03/11 10:26:18;;;;;;;22.92;18.80;;;;;;;;;;5033493;28;20414;-57
2024/03/11 10:28:47;;;;;;;22.08;17.27;;;;;;;;;;5033400;28;20057;-57
2024/03/11 10:31:20;;;;;;;21.85;18.13;;;;;;;;;;5033671;28;20053;-57
2024/03/11 10:33:50;;;;;;;20.73;17.30;;;;;;;;;;5033399;28;20406;-57
2024/03/11 10:36:16;;;;;;;18.65;14.65;;;;;;;;;;5033598;28;20064;-58
2024/03/11 10:38:45;;;;;;;16.98;14.35;;;;;;;;;;5032921;28;20064;-59
2024/03/11 10:41:17;;;;;;;18.20;15.07;;;;;;;;;;5033095;28;20057;-58
2024/03/11 10:43:44;;;;;;;14.18;11.57;;;;;;;;;;5033216;28;20399;-58
2024/03/11 10:46:18;;;;;;;12.38;9.93;;;;;;;;;;5033282;28;20406;-58
2024/03/11 10:48:46;;;;;;;8.90;7.82;;;;;;;;;;5032872;28;20067;-58
2024/03/11 10:51:18;;;;;;;6.50;5.43;;;;;;;;;;5033027;28;20493;-58
2024/03/11 10:53:46;;;;;;;3.97;3.10;;;;;;;;;;5033080;28;20057;-58
2024/03/11 10:56:19;;;;;;;3.72;2.90;;;;;;;;;;5032961;28;20049;-59
2024/03/11 10:58:52;;;;;;;3.63;2.83;;;;;;;;;;5033363;28;20077;-59
2024/03/11 11:01:21;;;;;;;3.03;2.33;;;;;;;;;;5033119;28;20080;-59
2024/03/11 11:03:52;;;;;;;2.35;1.83;;;;;;;;;;5032778;28;20405;-57
2024/03/11 11:06:27;;;;;;;2.72;2.03;;;;;;;;;;5032779;28;20049;-57
2024/03/11 11:08:55;;;;;;;2.05;1.60;;;;;;;;;;5032351;28;20061;-57
2024/03/11 11:11:22;;;;;;;2.65;1.80;;;;;;;;;;5032167;28;20057;-57
2024/03/11 11:13:55;;;;;;;3.80;1.55;;;;;;;;;;5032117;28;20049;-58
2024/03/11 11:16:25;;;;;;;3.00;2.17;;;;;;;;;;5032789;28;20049;-58
2024/03/11 11:18:54;;;;;;;3.28;1.90;;;;;;;;;;5031631;28;20057;-58
2024/03/11 11:21:23;;;;;;;4.63;2.10;;;;;;;;;;5032589;28;20064;-57
2024/03/11 11:23:51;;;;;;;3.85;2.15;;;;;;;;;;5032579;28;20057;-57
2024/03/11 11:26:33;;;;;;;3.60;2.30;;;;;;;;;;5032570;28;20522;-57
2024/03/11 11:29:02;;;;;;;2.47;2.10;;;;;;;;;;5032316;28;20049;-57
2024/03/11 11:31:32;;;;;;;2.63;2.00;;;;;;;;;;5032472;28;20399;-57
2024/03/11 11:34:01;;;;;;;2.13;1.60;;;;;;;;;;5032431;28;20061;-57
2024/03/11 11:37:02;;;;;;;2.38;1.60;;;;;;;;;;5031983;28;20442;-57
2024/03/11 11:39:32;;;;;;;2.00;1.80;;;;;;;;;;4990687;28;20158;-57
2024/03/11 11:41:59;;;;;;;2.50;1.90;;;;;;;;;;4990857;28;20054;-57
2024/03/11 11:44:44;;;;;;;2.85;1.48;;;;;;;;;;5009976;28;20053;-57
2024/03/11 11:47:15;;;;;;;2.22;1.40;;;;;;;;;;5032511;28;20490;-57
2024/03/11 11:49:43;;;;;;;1.60;1.10;;;;;;;;;;5032162;28;20049;-57
2024/03/11 11:52:10;;;;;;;3.05;1.30;;;;;;;;;;5031588;28;20060;-57
2024/03/11 11:54:37;;;;;;;2.63;1.10;;;;;;;;;;5031752;28;20479;-57
2024/03/11 11:57:05;;;;;;;1.73;1.38;;;;;;;;;;5032368;28;20064;-57
2024/03/11 11:59:33;;;;;;;1.83;0.90;;;;;;;;;;5035748;28;20431;-57
2024/03/11 12:02:00;;;;;;;2.30;1.00;;;;;;;;;;5036191;28;20060;-57
2024/03/11 12:04:29;;;;;;;2.22;1.00;;;;;;;;;;5035717;28;20064;-57
2024/03/11 12:06:55;;;;;;;1.80;0.90;;;;;;;;;;5036108;28;20346;-58
2024/03/11 12:09:23;;;;;;;4.95;1.42;;;;;;;;;;5035994;28;20061;-57
2024/03/11 12:11:50;;;;;;;5.90;1.90;;;;;;;;;;5035488;28;20079;-57
2024/03/11 12:14:19;;;;;;;4.20;1.30;;;;;;;;;;5035950;28;20049;-57
2024/03/11 12:16:45;;;;;;;4.40;3.03;;;;;;;;;;5036134;28;20411;-57
2024/03/11 12:19:12;;;;;;;6.07;2.20;;;;;;;;;;5035604;28;20056;-57
2024/03/11 12:21:41;;;;;;;3.97;2.20;;;;;;;;;;5035760;28;20061;-57
2024/03/11 12:24:12;;;;;;;6.22;2.20;;;;;;;;;;5035518;28;20053;-57
2024/03/11 12:26:41;;;;;;;4.28;3.03;;;;;;;;;;5035717;28;20490;-58
2024/03/11 12:29:09;;;;;;;5.35;2.67;;;;;;;;;;5035736;28;20049;-59
2024/03/11 12:31:37;;;;;;;2.88;2.00;;;;;;;;;;5035689;28;20060;-59
2024/03/11 12:34:08;;;;;;;4.43;1.70;;;;;;;;;;5035394;28;20049;-58
2024/03/11 12:36:35;;;;;;;4.05;1.70;;;;;;;;;;5035682;28;20053;-59
2024/03/11 12:39:04;;;;;;;3.92;1.33;;;;;;;;;;5035411;28;20053;-60
2024/03/11 12:41:37;;;;;;;10.18;2.10;;;;;;;;;;5035514;28;20049;-60
2024/03/11 12:44:10;;;;;;;2.30;1.38;;;;;;;;;;5035684;28;20380;-60
2024/03/11 12:46:37;;;;;;;2.83;1.00;;;;;;;;;;5035696;28;20057;-61
2024/03/11 12:49:04;;;;;;;2.65;0.90;;;;;;;;;;5035046;28;20057;-61
2024/03/11 12:51:31;;;;;;;2.25;0.98;;;;;;;;;;5035451;28;20060;-62
2024/03/11 12:54:11;;;;;;;1.38;0.80;;;;;;;;;;5035311;28;20418;-61
2024/03/11 12:56:39;;;;;;;1.27;0.88;;;;;;;;;;5035538;28;20072;-60
2024/03/11 12:59:13;;;;;;;2.25;1.00;;;;;;;;;;5035542;28;20049;-60
2024/03/11 13:01:42;;;;;;;1.42;1.00;;;;;;;;;;5035241;28;20065;-60
2024/03/11 13:04:16;;;;;;;6.25;1.02;;;;;;;;;;5035105;28;20056;-60
2024/03/11 13:06:43;;;;;;;1.80;1.10;;;;;;;;;;5035200;28;20057;-61
2024/03/11 13:09:23;;;;;;;3.58;1.17;;;;;;;;;;5033938;28;20056;-61
2024/03/11 13:11:54;;;;;;;1.63;1.10;;;;;;;;;;5034691;28;20057;-61
2024/03/11 13:14:21;;;;;;;1.50;1.02;;;;;;;;;;5034800;28;20046;-61
2024/03/11 13:16:48;;;;;;;2.53;1.50;;;;;;;;;;5035021;28;20053;-61
2024/03/11 13:19:15;;;;;;;3.42;1.25;;;;;;;;;;5034909;28;20054;-61
2024/03/11 13:21:44;;;;;;;2.13;1.52;;;;;;;;;;5035011;28;20058;-60
2024/03/11 13:24:11;;;;;;;1.52;1.10;;;;;;;;;;5034337;28;20055;-61
2024/03/11 13:26:40;;;;;;;2.13;1.52;;;;;;;;;;5034659;28;20064;-61
2024/03/11 13:29:09;;;;;;;1.43;1.03;;;;;;;;;;5034520;28;20061;-60
2024/03/11 13:31:36;;;;;;;1.92;1.30;;;;;;;;;;5034606;28;20053;-60
2024/03/11 13:34:04;;;;;;;1.77;1.10;;;;;;;;;;5034597;28;20053;-61
2024/03/11 13:36:31;;;;;;;2.05;1.48;;;;;;;;;;5034980;28;20049;-60
2024/03/11 13:38:59;;;;;;;1.85;1.20;;;;;;;;;;5034522;28;20064;-61
2024/03/11 13:41:26;;;;;;;1.73;1.15;;;;;;;;;;5033929;28;20057;-61
2024/03/11 13:43:54;;;;;;;1.77;1.10;;;;;;;;;;5034349;28;20049;-61
2024/03/11 13:46:23;;;;;;;1.48;0.90;;;;;;;;;;5034055;28;20072;-61
2024/03/11 13:48:49;;;;;;;1.88;0.90;;;;;;;;;;5034273;28;20443;-60
2024/03/11 13:51:18;;;;;;;1.83;0.80;;;;;;;;;;5034319;28;20054;-60
2024/03/11 13:53:47;;;;;;;1.83;0.75;;;;;;;;;;5034282;28;20046;-61
2024/03/11 13:56:14;;;;;;;1.50;0.85;;;;;;;;;;5034516;28;20053;-59
2024/03/11 13:58:42;;;;;;;1.63;0.73;;;;;;;;;;5033744;28;20057;-59
2024/03/11 14:01:10;;;;;;;2.03;1.10;;;;;;;;;;5034112;28;20053;-59
2024/03/11 14:03:40;;;;;;;0.93;0.50;;;;;;;;;;5034081;28;20395;-59
2024/03/11 14:06:08;;;;;;;1.38;0.82;;;;;;;;;;5033824;28;20053;-60
2024/03/11 14:08:35;;;;;;;1.10;0.70;;;;;;;;;;5033639;28;20065;-59
2024/03/11 14:11:02;;;;;;;1.17;0.68;;;;;;;;;;5033611;28;20060;-59
2024/03/11 14:13:29;;;;;;;2.33;0.90;;;;;;;;;;5033368;28;20057;-59
2024/03/11 14:15:56;;;;;;;0.73;0.50;;;;;;;;;;5033616;28;20057;-59
2024/03/11 14:18:24;;;;;;;3.42;0.73;;;;;;;;;;5033401;28;20053;-59
2024/03/11 14:20:51;;;;;;;1.33;0.80;;;;;;;;;;5033381;28;20419;-59
2024/03/11 14:23:18;;;;;;;1.50;0.90;;;;;;;;;;5033692;28;20064;-58
2024/03/11 14:25:45;;;;;;;2.08;0.95;;;;;;;;;;5033551;28;20060;-59
2024/03/11 14:28:12;;;;;;;1.20;0.80;;;;;;;;;;5033306;28;20057;-58